createdAt,value
2023-02-01T00:03:16.587Z,20.63
2023-02-01T00:08:19.230Z,20.55
2023-02-01T00:13:21.800Z,23.80
2023-02-01T00:18:24.348Z,20.55
2023-02-01T00:23:27.275Z,20.25
2023-02-01T00:28:30.180Z,21.88
2023-02-01T00:33:33.719Z,20.00
2023-02-01T00:38:39.198Z,24.55
2023-02-01T00:43:43.067Z,21.85
2023-02-01T00:48:45.947Z,19.35
2023-02-01T00:53:48.671Z,18.27
2023-02-01T00:58:51.254Z,18.35
2023-02-01T01:03:59.543Z,22.60
2023-02-01T01:09:05.097Z,21.95
2023-02-01T01:14:09.030Z,18.70
2023-02-01T01:19:13.066Z,19.05
2023-02-01T01:24:16.128Z,18.98
2023-02-01T01:29:18.728Z,20.80
2023-02-01T01:34:21.399Z,20.33
2023-02-01T01:39:24.024Z,17.67
2023-02-01T01:45:05.693Z,19.17
2023-02-01T01:50:14.154Z,18.20
2023-02-01T01:55:19.563Z,16.00
2023-02-01T02:00:22.787Z,17.17
2023-02-01T02:05:29.640Z,20.45
2023-02-01T02:10:51.652Z,16.02
2023-02-01T02:21:19.757Z,17.67
2023-02-01T02:26:22.281Z,17.10
2023-02-01T02:31:43.302Z,17.85
2023-02-01T02:36:55.128Z,13.70
2023-02-01T02:42:45.403Z,15.85
2023-02-01T02:48:09.135Z,18.98
2023-02-01T02:53:38.753Z,18.83
2023-02-01T02:59:02.347Z,18.77
2023-02-01T03:04:10.044Z,19.15
2023-02-01T03:09:36.938Z,21.77
2023-02-01T03:14:44.455Z,20.95
2023-02-01T03:19:51.810Z,18.42
2023-02-01T03:24:56.280Z,19.45
2023-02-01T03:30:09.260Z,19.60
2023-02-01T03:35:12.634Z,21.80
2023-02-01T03:40:20.359Z,22.10
2023-02-01T03:45:32.458Z,23.08
2023-02-01T03:50:39.840Z,19.27
2023-02-01T03:55:43.811Z,20.77
2023-02-01T04:01:01.729Z,22.10
2023-02-01T04:06:07.324Z,22.63
2023-02-01T04:11:10.607Z,20.50
2023-02-01T04:16:13.433Z,23.33
2023-02-01T04:21:16.646Z,23.85
2023-02-01T04:26:20.148Z,21.98
2023-02-01T04:31:28.723Z,22.80
2023-02-01T04:36:31.444Z,25.83
2023-02-01T04:41:34.636Z,23.67
2023-02-01T04:46:37.536Z,25.25
2023-02-01T04:51:40.614Z,29.90
2023-02-01T04:56:43.415Z,30.83
2023-02-01T05:01:48.621Z,26.05
2023-02-01T05:06:51.441Z,23.20
2023-02-01T05:12:12.516Z,27.55
2023-02-01T05:17:15.112Z,33.30
2023-02-01T05:22:17.798Z,22.60
2023-02-01T05:27:20.344Z,26.50
2023-02-01T05:32:23.507Z,26.08
2023-02-01T05:37:26.278Z,27.95
2023-02-01T05:42:28.811Z,33.88
2023-02-01T05:47:31.460Z,29.67
2023-02-01T05:52:34.507Z,33.40
2023-02-01T05:57:37.177Z,37.63
2023-02-01T06:02:39.783Z,36.40
2023-02-01T06:07:43.193Z,40.55
2023-02-01T06:12:46.346Z,35.90
2023-02-01T06:17:48.961Z,31.27
2023-02-01T06:22:51.531Z,33.00
2023-02-01T06:27:54.024Z,32.10
2023-02-01T06:32:56.672Z,33.85
2023-02-01T06:37:59.284Z,35.47
2023-02-01T06:43:02.030Z,30.05
2023-02-01T06:48:04.636Z,33.45
2023-02-01T06:53:07.308Z,32.40
2023-02-01T06:58:09.935Z,34.10
2023-02-01T07:03:12.512Z,34.17
2023-02-01T07:08:15.225Z,32.80
2023-02-01T07:13:17.802Z,33.00
2023-02-01T07:18:20.391Z,34.80
2023-02-01T07:23:23.972Z,31.15
2023-02-01T07:28:27.032Z,33.15
2023-02-01T07:33:29.693Z,33.10
2023-02-01T07:38:32.589Z,27.25
2023-02-01T07:43:36.406Z,29.77
2023-02-01T07:48:39.615Z,28.48
2023-02-01T07:53:43.227Z,28.83
2023-02-01T07:58:50.660Z,30.05
2023-02-01T08:03:55.851Z,34.35
2023-02-01T08:08:59.197Z,26.40
2023-02-01T08:14:01.945Z,26.55
2023-02-01T08:19:04.744Z,28.27
2023-02-01T08:24:10.377Z,27.27
2023-02-01T08:29:14.485Z,26.63
2023-02-01T08:34:17.191Z,30.90
2023-02-01T08:39:19.777Z,24.40
2023-02-01T08:44:22.363Z,25.80
2023-02-01T08:49:24.954Z,23.77
2023-02-01T08:54:27.541Z,23.27
2023-02-01T08:59:30.426Z,26.02
2023-02-01T09:04:33.633Z,26.50
2023-02-01T09:09:36.266Z,27.33
2023-02-01T09:14:39.012Z,24.05
2023-02-01T09:19:42.965Z,27.17
2023-02-01T09:24:45.924Z,27.15
2023-02-01T09:29:53.585Z,66.75
2023-02-01T09:34:56.288Z,30.70
2023-02-01T09:39:58.913Z,29.85
2023-02-01T09:45:35.285Z,32.85
2023-02-01T09:50:45.483Z,29.67
2023-02-01T09:55:54.349Z,30.83
2023-02-01T10:01:00.012Z,24.77
2023-02-01T10:06:20.425Z,27.52
2023-02-01T10:11:49.419Z,28.17
2023-02-01T10:16:59.275Z,24.25
2023-02-01T10:22:09.805Z,22.10
2023-02-01T10:27:22.861Z,23.40
2023-02-01T10:32:35.689Z,26.45
2023-02-01T10:37:38.439Z,24.52
2023-02-01T10:42:41.569Z,23.27
2023-02-01T10:47:44.484Z,24.83
2023-02-01T10:52:55.539Z,26.23
2023-02-01T10:58:01.339Z,27.30
2023-02-01T11:03:22.404Z,21.65
2023-02-01T11:08:25.267Z,16.70
2023-02-01T11:13:39.448Z,23.60
2023-02-01T11:18:42.353Z,22.83
2023-02-01T11:23:46.519Z,22.15
2023-02-01T11:28:55.531Z,26.05
2023-02-01T11:34:08.885Z,25.30
2023-02-01T11:39:14.544Z,25.42
2023-02-01T11:44:23.195Z,23.60
2023-02-01T11:49:28.477Z,24.73
2023-02-01T11:54:43.588Z,24.80
2023-02-01T12:00:01.825Z,23.95
2023-02-01T12:05:40.955Z,22.65
2023-02-01T12:11:15.036Z,24.02
2023-02-01T12:16:38.543Z,24.08
2023-02-01T12:21:49.986Z,26.38
2023-02-01T12:27:20.779Z,24.83
2023-02-01T12:33:00.733Z,24.08
2023-02-01T12:38:03.266Z,23.92
2023-02-01T12:43:16.460Z,25.38
2023-02-01T12:48:36.945Z,21.23
2023-02-01T12:54:01.831Z,25.42
2023-02-01T12:59:11.297Z,20.50
2023-02-01T13:04:25.127Z,22.20
2023-02-01T13:09:32.830Z,22.38
2023-02-01T13:14:45.017Z,21.00
2023-02-01T13:20:16.661Z,23.15
2023-02-01T13:25:29.932Z,23.33
2023-02-01T13:31:29.956Z,21.85
2023-02-01T13:37:16.350Z,19.15
2023-02-01T13:42:21.801Z,23.50
2023-02-01T13:47:43.106Z,24.92
2023-02-01T13:52:53.050Z,21.38
2023-02-01T13:58:06.056Z,21.55
2023-02-01T14:03:17.969Z,23.00
2023-02-01T14:18:47.395Z,21.40
2023-02-01T14:23:52.751Z,25.83
2023-02-01T14:29:01.230Z,20.80
2023-02-01T14:34:27.142Z,22.73
2023-02-01T14:39:47.810Z,23.40
2023-02-01T14:44:59.063Z,22.35
2023-02-01T14:50:17.033Z,24.70
2023-02-01T14:55:31.472Z,21.90
2023-02-01T15:00:34.422Z,21.27
2023-02-01T15:05:37.116Z,21.30
2023-02-01T15:10:45.822Z,21.60
2023-02-01T15:16:05.303Z,20.17
2023-02-01T15:21:30.486Z,22.60
2023-02-01T15:26:35.647Z,20.38
2023-02-01T15:31:44.404Z,22.98
2023-02-01T15:37:01.894Z,22.63
2023-02-01T15:42:20.633Z,22.58
2023-02-01T15:47:29.826Z,18.35
2023-02-01T15:52:37.461Z,19.50
2023-02-01T15:57:45.058Z,20.52
2023-02-01T16:03:00.652Z,24.98
2023-02-01T16:08:13.979Z,21.50
2023-02-01T16:13:17.940Z,24.02
2023-02-01T16:18:20.837Z,21.05
2023-02-01T16:23:41.953Z,23.08
2023-02-01T16:28:44.468Z,19.90
2023-02-01T16:33:51.663Z,21.15
2023-02-01T16:38:54.434Z,22.23
2023-02-01T16:43:57.220Z,21.67
2023-02-01T16:49:00.735Z,22.20
2023-02-01T16:54:03.675Z,23.02
2023-02-01T16:59:06.754Z,22.75
2023-02-01T17:04:10.947Z,23.08
2023-02-01T17:09:13.597Z,21.70
2023-02-01T17:14:19.527Z,19.80
2023-02-01T17:19:24.724Z,19.95
2023-02-01T17:24:39.212Z,20.75
2023-02-01T17:29:49.725Z,21.90
2023-02-01T17:34:55.174Z,19.63
2023-02-01T17:39:58.286Z,19.52
2023-02-01T17:45:12.708Z,17.70
2023-02-01T17:50:16.017Z,19.55
2023-02-01T17:55:23.450Z,16.40
2023-02-01T18:00:26.294Z,16.85
2023-02-01T18:05:44.738Z,15.73
2023-02-01T18:10:49.758Z,17.70
2023-02-01T18:15:52.305Z,18.30
2023-02-01T18:20:54.958Z,14.93
2023-02-01T18:25:57.730Z,14.90
2023-02-01T18:31:03.173Z,15.77
2023-02-01T18:36:06.102Z,15.70
2023-02-01T18:41:14.487Z,12.20
2023-02-01T18:46:17.697Z,17.23
2023-02-01T18:51:21.265Z,15.75
2023-02-01T18:56:23.831Z,14.63
2023-02-01T19:01:26.384Z,16.10
2023-02-01T19:06:29.149Z,15.63
2023-02-01T19:11:31.804Z,17.02
2023-02-01T19:16:36.224Z,15.35
2023-02-01T19:21:39.413Z,14.23
2023-02-01T19:26:42.478Z,15.20
2023-02-01T19:31:48.103Z,14.98
2023-02-01T19:36:51.078Z,14.80
2023-02-01T19:41:53.862Z,15.60
2023-02-01T19:46:56.600Z,15.40
2023-02-01T19:51:59.203Z,19.40
2023-02-01T19:57:01.775Z,16.13
2023-02-01T20:02:03.650Z,17.60
2023-02-01T20:07:06.442Z,18.30
2023-02-01T20:12:13.433Z,16.27
2023-02-01T20:17:18.016Z,19.58
2023-02-01T20:22:20.965Z,20.95
2023-02-01T20:27:25.522Z,19.90
2023-02-01T20:32:28.544Z,19.73
2023-02-01T20:37:32.150Z,23.98
2023-02-01T20:42:35.874Z,22.52
2023-02-01T20:47:38.503Z,25.40
2023-02-01T20:52:41.111Z,21.65
2023-02-01T20:57:43.677Z,22.48
2023-02-01T21:02:47.588Z,23.55
2023-02-01T21:07:50.193Z,23.33
2023-02-01T21:13:03.853Z,23.95
2023-02-01T21:18:09.242Z,24.13
2023-02-01T21:23:11.771Z,24.20
2023-02-01T21:28:14.651Z,22.00
2023-02-01T21:33:17.173Z,25.25
2023-02-01T21:38:19.861Z,25.70
2023-02-01T21:43:22.410Z,25.58
2023-02-01T21:48:25.017Z,29.17
2023-02-01T21:53:27.625Z,30.25
2023-02-01T21:58:30.149Z,24.17
2023-02-01T22:03:32.715Z,26.90
2023-02-01T22:08:38.821Z,25.77
2023-02-01T22:13:41.377Z,25.58
2023-02-01T22:18:51.624Z,26.88
2023-02-01T22:23:55.621Z,25.38
2023-02-01T22:28:58.207Z,24.67
2023-02-01T22:34:00.772Z,23.70
2023-02-01T22:39:04.103Z,22.83
2023-02-01T22:44:07.052Z,25.25
2023-02-01T22:49:09.609Z,27.15
2023-02-01T22:54:23.933Z,25.70
2023-02-01T22:59:26.925Z,24.75
2023-02-01T23:04:29.811Z,23.10
2023-02-01T23:09:32.458Z,25.15
2023-02-01T23:14:54.984Z,26.17
2023-02-01T23:19:57.642Z,25.33
2023-02-01T23:25:00.343Z,23.88
2023-02-01T23:30:05.823Z,23.70
2023-02-01T23:35:08.853Z,20.30
2023-02-01T23:40:13.060Z,24.42
2023-02-01T23:45:15.655Z,26.75
2023-02-01T23:50:18.308Z,34.47
2023-02-01T23:55:20.900Z,24.52
